Time;durP1;ratioP1;P1;durP2;ratioP2;P2;SDS_P1;SDS_P2;PMS_P1;PMS_P2;Temp;Humidity;BMP_temperature;BMP_pressure;BME280_temperature;BME280_humidity;BME280_pressure;Samples;Min_cycle;Max_cycle;Signal;HPM_P1;HPM_P2
2023/09/15 00:01:35;;;;;;;7.70;6.90;;;13.20;99.90;;;;;;5034008;28;20207;-74
2023/09/15 00:04:06;;;;;;;8.50;7.70;;;13.20;99.90;;;;;;5028940;28;20253;-74
2023/09/15 00:06:34;;;;;;;10.65;7.55;;;13.10;99.90;;;;;;5033708;28;20250;-70
2023/09/15 00:09:01;;;;;;;9.55;7.93;;;13.10;99.90;;;;;;5035596;28;20199;-71
2023/09/15 00:11:39;;;;;;;8.60;7.80;;;13.10;99.90;;;;;;5035049;28;20577;-72
2023/09/15 00:14:07;;;;;;;20.88;9.30;;;13.10;99.90;;;;;;5035308;28;20225;-71
2023/09/15 00:16:34;;;;;;;7.55;6.95;;;13.00;99.90;;;;;;5033338;28;20744;-73
2023/09/15 00:19:01;;;;;;;11.82;9.10;;;13.00;99.90;;;;;;5032830;28;20289;-72
2023/09/15 00:21:29;;;;;;;14.43;9.18;;;12.90;99.90;;;;;;5032582;28;20264;-72
2023/09/15 00:23:56;;;;;;;8.80;7.90;;;12.90;99.90;;;;;;5034984;28;20294;-74
2023/09/15 00:26:24;;;;;;;11.02;9.07;;;12.80;99.90;;;;;;5024822;28;20384;-70
2023/09/15 00:28:51;;;;;;;18.08;12.65;;;12.90;99.90;;;;;;5032176;28;20203;-70
2023/09/15 00:31:18;;;;;;;17.00;13.02;;;12.80;99.90;;;;;;5026290;28;20298;-71
2023/09/15 00:33:45;;;;;;;18.80;16.05;;;12.80;99.90;;;;;;5034664;28;20575;-71
2023/09/15 00:36:12;;;;;;;17.67;14.50;;;12.80;99.90;;;;;;5024992;28;20748;-73
2023/09/15 00:38:40;;;;;;;12.18;10.82;;;12.80;99.90;;;;;;5028297;28;20210;-71
2023/09/15 00:41:08;;;;;;;11.80;9.65;;;12.80;99.90;;;;;;5035619;28;20292;-74
2023/09/15 00:43:35;;;;;;;10.38;9.05;;;12.80;99.90;;;;;;5040711;28;20239;-73
2023/09/15 00:46:03;;;;;;;11.02;8.40;;;12.80;99.90;;;;;;5034014;28;20300;-70
2023/09/15 00:48:32;;;;;;;8.80;7.97;;;12.80;99.90;;;;;;5041368;28;20199;-74
2023/09/15 00:50:59;;;;;;;9.13;8.00;;;12.80;99.90;;;;;;5043520;28;20218;-71
2023/09/15 00:53:26;;;;;;;11.13;7.68;;;12.80;99.90;;;;;;5037128;28;20696;-72
2023/09/15 00:55:54;;;;;;;8.80;6.95;;;12.80;99.90;;;;;;5034272;28;20324;-72
2023/09/15 00:58:22;;;;;;;9.07;7.63;;;12.70;99.90;;;;;;5033137;28;20238;-74
2023/09/15 01:00:49;;;;;;;15.40;9.15;;;12.70;99.90;;;;;;5033345;28;20221;-74
2023/09/15 01:03:20;;;;;;;17.73;9.93;;;12.70;99.90;;;;;;5031495;28;20206;-74
2023/09/15 01:05:47;;;;;;;12.85;8.32;;;12.70;99.90;;;;;;5026541;28;20235;-72
2023/09/15 01:08:15;;;;;;;11.25;8.07;;;12.70;99.90;;;;;;5029297;28;20211;-73
2023/09/15 01:10:42;;;;;;;8.20;6.13;;;12.80;99.90;;;;;;5028332;28;20668;-74
2023/09/15 01:13:11;;;;;;;8.32;6.88;;;12.70;99.90;;;;;;5028580;28;20215;-75
2023/09/15 01:15:45;;;;;;;7.38;6.68;;;12.80;99.90;;;;;;5025805;28;20233;-72
2023/09/15 01:18:21;;;;;;;7.18;6.47;;;12.80;99.90;;;;;;5009815;28;20595;-75
2023/09/15 01:21:32;;;;;;;12.90;7.15;;;12.80;99.90;;;;;;5015092;28;20288;-73
2023/09/15 01:24:27;;;;;;;8.00;7.20;;;12.70;99.90;;;;;;4993797;28;20672;-71
2023/09/15 01:27:34;;;;;;;7.28;6.45;;;12.70;99.90;;;;;;4994904;28;20263;-72
2023/09/15 01:30:02;;;;;;;7.32;6.55;;;12.70;99.90;;;;;;5011693;28;20207;-71
2023/09/15 01:32:31;;;;;;;7.50;6.78;;;12.70;99.90;;;;;;5021634;28;20224;-74
2023/09/15 01:34:58;;;;;;;8.15;7.00;;;12.60;99.90;;;;;;5026237;28;20566;-75
2023/09/15 01:37:25;;;;;;;15.63;8.10;;;12.50;99.90;;;;;;5025411;28;20225;-70
2023/09/15 01:39:52;;;;;;;11.07;7.35;;;12.50;99.90;;;;;;5020856;28;20300;-72
2023/09/15 01:42:19;;;;;;;9.00;7.30;;;12.40;99.90;;;;;;5034975;28;20205;-74
2023/09/15 01:44:46;;;;;;;10.63;8.20;;;12.40;99.90;;;;;;5022085;28;20661;-70
2023/09/15 01:47:19;;;;;;;12.27;6.78;;;12.40;99.90;;;;;;5026865;28;20312;-71
2023/09/15 01:49:46;;;;;;;7.93;6.47;;;12.30;99.90;;;;;;5031795;28;20240;-71
2023/09/15 01:52:14;;;;;;;7.78;7.00;;;12.30;99.90;;;;;;5024428;28;20208;-72
2023/09/15 01:54:49;;;;;;;10.23;7.97;;;12.30;99.90;;;;;;5032602;28;20215;-71
2023/09/15 01:57:16;;;;;;;9.45;6.60;;;12.30;99.90;;;;;;5026327;28;20236;-72
2023/09/15 01:59:43;;;;;;;8.07;7.30;;;12.20;99.90;;;;;;5022130;28;20323;-71
2023/09/15 02:02:10;;;;;;;8.63;7.50;;;12.20;99.90;;;;;;5032428;28;20239;-75
2023/09/15 02:04:39;;;;;;;11.35;7.68;;;12.20;99.90;;;;;;5029594;28;20212;-71
2023/09/15 02:07:06;;;;;;;8.65;6.57;;;12.00;99.90;;;;;;5028879;28;20307;-72
2023/09/15 02:09:34;;;;;;;8.15;7.35;;;12.00;99.90;;;;;;5026811;28;20196;-75
2023/09/15 02:12:01;;;;;;;8.25;7.32;;;12.00;99.90;;;;;;5026587;28;20291;-70
2023/09/15 02:14:28;;;;;;;7.55;6.75;;;12.00;99.90;;;;;;5027392;28;20207;-72
2023/09/15 02:16:55;;;;;;;13.65;7.93;;;12.00;99.90;;;;;;5025524;28;20247;-74
2023/09/15 02:19:22;;;;;;;7.80;7.10;;;12.00;99.90;;;;;;5026324;28;20311;-73
2023/09/15 02:21:50;;;;;;;6.95;6.35;;;12.00;99.90;;;;;;5022160;28;20204;-73
2023/09/15 02:24:17;;;;;;;9.43;7.50;;;12.00;99.90;;;;;;5030406;28;20204;-72
2023/09/15 02:26:44;;;;;;;7.32;6.63;;;11.90;99.90;;;;;;5031918;28;20220;-70
2023/09/15 02:29:13;;;;;;;11.70;7.75;;;11.90;99.90;;;;;;5031247;28;20252;-74
2023/09/15 02:31:40;;;;;;;9.18;6.80;;;11.90;99.90;;;;;;5026644;28;20209;-70
2023/09/15 02:34:08;;;;;;;8.07;6.88;;;11.80;99.90;;;;;;5029145;28;20255;-73
2023/09/15 02:36:34;;;;;;;8.43;7.45;;;11.80;99.90;;;;;;5029490;28;20224;-71
2023/09/15 02:39:03;;;;;;;9.65;6.97;;;11.80;99.90;;;;;;5030175;28;20699;-71
2023/09/15 02:41:30;;;;;;;6.53;5.93;;;11.80;99.90;;;;;;5024429;28;20652;-71
2023/09/15 02:43:57;;;;;;;6.97;6.32;;;11.70;99.90;;;;;;5029955;28;20292;-72
2023/09/15 02:46:25;;;;;;;11.32;6.95;;;11.80;99.90;;;;;;5031156;28;20226;-74
2023/09/15 02:48:52;;;;;;;8.82;6.15;;;11.80;99.90;;;;;;5027678;28;20636;-70
2023/09/15 02:51:19;;;;;;;7.40;6.80;;;11.70;99.90;;;;;;5031283;28;20697;-71
2023/09/15 02:53:46;;;;;;;8.70;7.32;;;11.70;99.90;;;;;;5033150;28;20202;-71
2023/09/15 02:56:14;;;;;;;7.63;6.93;;;11.70;99.90;;;;;;5031590;28;20232;-75
2023/09/15 02:58:41;;;;;;;12.85;8.15;;;11.60;99.90;;;;;;5030878;28;20338;-70
2023/09/15 03:01:14;;;;;;;7.90;6.65;;;11.60;99.90;;;;;;5031812;28;20279;-71
2023/09/15 03:03:41;;;;;;;9.10;6.43;;;11.60;99.90;;;;;;5024729;28;20205;-71
2023/09/15 03:06:08;;;;;;;8.60;7.55;;;11.60;99.90;;;;;;5031615;28;20230;-72
2023/09/15 03:08:37;;;;;;;6.82;6.15;;;11.50;99.90;;;;;;5030268;28;20232;-74
2023/09/15 03:11:04;;;;;;;8.57;7.15;;;11.50;99.90;;;;;;5031505;28;20283;-71
2023/09/15 03:13:33;;;;;;;6.22;5.63;;;11.50;99.90;;;;;;5031312;28;20659;-73
2023/09/15 03:16:08;;;;;;;7.75;6.65;;;11.50;99.90;;;;;;5031705;28;20307;-73
2023/09/15 03:18:36;;;;;;;7.18;6.45;;;11.40;99.90;;;;;;5008546;28;20306;-74
2023/09/15 03:21:04;;;;;;;7.45;6.20;;;11.40;99.90;;;;;;5031827;28;20204;-71
2023/09/15 03:23:31;;;;;;;7.20;6.13;;;11.40;99.90;;;;;;5034274;28;20573;-74
2023/09/15 03:26:02;;;;;;;7.72;6.00;;;11.30;99.90;;;;;;5035402;28;20322;-73
2023/09/15 03:28:33;;;;;;;6.70;6.10;;;11.30;99.90;;;;;;5028401;28;20201;-71
2023/09/15 03:31:00;;;;;;;8.07;7.22;;;11.30;99.90;;;;;;5034773;28;20204;-73
2023/09/15 03:33:30;;;;;;;8.20;6.40;;;11.30;99.90;;;;;;5037734;28;20224;-70
2023/09/15 03:35:58;;;;;;;6.00;5.47;;;11.20;99.90;;;;;;5039820;28;20225;-71
2023/09/15 03:38:25;;;;;;;6.93;6.30;;;11.20;99.90;;;;;;5024285;28;20598;-73
2023/09/15 03:40:51;;;;;;;6.15;5.53;;;11.10;99.90;;;;;;5031230;28;20569;-70
2023/09/15 03:43:18;;;;;;;8.40;6.63;;;11.10;99.90;;;;;;5034721;28;20280;-74
2023/09/15 03:45:47;;;;;;;6.28;5.30;;;11.10;99.90;;;;;;5035242;28;20315;-72
2023/09/15 03:48:14;;;;;;;6.00;5.50;;;11.00;99.90;;;;;;5034099;28;20197;-72
2023/09/15 03:50:41;;;;;;;6.50;5.82;;;11.00;99.90;;;;;;5034914;28;20235;-72
2023/09/15 03:53:08;;;;;;;10.57;5.93;;;11.00;99.90;;;;;;5034727;28;20203;-71
2023/09/15 03:55:35;;;;;;;6.45;5.85;;;11.00;99.90;;;;;;5034754;28;20232;-72
2023/09/15 03:58:02;;;;;;;5.97;5.47;;;11.10;99.90;;;;;;5033959;28;20227;-72
2023/09/15 04:00:29;;;;;;;6.45;5.30;;;11.00;99.90;;;;;;5031950;28;20254;-73
2023/09/15 04:02:57;;;;;;;8.45;5.25;;;11.00;99.90;;;;;;5034511;28;20666;-74
2023/09/15 04:05:24;;;;;;;7.22;5.50;;;10.90;99.90;;;;;;5034837;28;20203;-73
2023/09/15 04:07:51;;;;;;;7.35;4.82;;;11.00;99.90;;;;;;5030077;28;20200;-75
2023/09/15 04:10:18;;;;;;;6.70;5.40;;;11.00;99.90;;;;;;5033602;28;20204;-75
2023/09/15 04:12:45;;;;;;;5.25;4.80;;;10.90;99.90;;;;;;5034491;28;20262;-74
2023/09/15 04:15:12;;;;;;;7.40;5.53;;;10.90;99.90;;;;;;5034173;28;20204;-74
2023/09/15 04:17:39;;;;;;;5.80;5.25;;;10.90;99.90;;;;;;5034044;28;20225;-73
2023/09/15 04:20:10;;;;;;;6.95;5.40;;;10.90;99.90;;;;;;5033643;28;20230;-74
2023/09/15 04:22:38;;;;;;;5.82;4.60;;;10.90;99.90;;;;;;5016616;28;20279;-73
2023/09/15 04:25:06;;;;;;;7.50;4.70;;;10.90;99.90;;;;;;5033452;28;20215;-72
2023/09/15 04:27:34;;;;;;;4.63;4.22;;;10.80;99.90;;;;;;5033850;28;20252;-73
2023/09/15 04:30:02;;;;;;;6.25;4.85;;;11.00;99.90;;;;;;5033349;28;20276;-75
2023/09/15 04:32:31;;;;;;;6.07;4.53;;;10.80;99.90;;;;;;5032653;28;20239;-75
2023/09/15 04:34:58;;;;;;;4.45;4.10;;;10.80;99.90;;;;;;5032885;28;20201;-75
2023/09/15 04:37:29;;;;;;;5.70;5.05;;;10.90;99.90;;;;;;5033709;28;20220;-74
2023/09/15 04:39:56;;;;;;;5.38;4.82;;;10.90;99.90;;;;;;5033380;28;20366;-73
2023/09/15 04:42:24;;;;;;;6.00;4.97;;;10.90;99.90;;;;;;5033285;28;20219;-73
2023/09/15 04:44:51;;;;;;;4.68;4.28;;;11.00;99.90;;;;;;5027375;28;20201;-74
2023/09/15 04:47:30;;;;;;;4.68;4.10;;;11.00;99.90;;;;;;5031533;28;20251;-72
2023/09/15 04:49:57;;;;;;;5.55;4.20;;;11.00;99.90;;;;;;5029598;28;20288;-73
2023/09/15 04:52:24;;;;;;;7.65;5.18;;;11.10;99.90;;;;;;5033502;28;20291;-71
2023/09/15 04:54:53;;;;;;;7.95;4.28;;;11.10;99.90;;;;;;5032466;28;20299;-74
2023/09/15 04:57:21;;;;;;;5.82;4.90;;;11.00;99.90;;;;;;5032241;28;20232;-70
2023/09/15 04:59:48;;;;;;;9.07;4.30;;;11.00;99.90;;;;;;5031634;28;20224;-71
2023/09/15 05:02:16;;;;;;;5.32;4.32;;;11.00;99.90;;;;;;5033169;28;20208;-74
2023/09/15 05:04:43;;;;;;;5.38;4.63;;;10.90;99.90;;;;;;5031255;28;20196;-71
2023/09/15 05:07:09;;;;;;;5.28;4.63;;;10.90;99.90;;;;;;5032526;28;20769;-73
2023/09/15 05:09:36;;;;;;;6.73;4.27;;;10.90;99.90;;;;;;5032539;28;20196;-71
2023/09/15 05:12:06;;;;;;;7.35;4.80;;;10.90;99.90;;;;;;5030257;28;20242;-74
2023/09/15 05:14:33;;;;;;;5.22;4.72;;;11.00;99.90;;;;;;5033587;28;20279;-72
2023/09/15 05:16:59;;;;;;;6.78;4.07;;;11.00;99.90;;;;;;5030103;28;20243;-70
2023/09/15 05:19:26;;;;;;;8.15;4.00;;;11.00;99.90;;;;;;5021551;28;20205;-74
2023/09/15 05:21:53;;;;;;;7.78;5.43;;;11.10;99.90;;;;;;5028714;28;20196;-71
2023/09/15 05:24:20;;;;;;;5.22;3.80;;;11.20;99.90;;;;;;5030719;28;20294;-73
2023/09/15 05:26:47;;;;;;;7.40;4.35;;;11.30;99.90;;;;;;5027045;28;20709;-73
2023/09/15 05:29:20;;;;;;;6.50;4.40;;;11.30;99.90;;;;;;5024185;28;20275;-69
2023/09/15 05:31:48;;;;;;;5.45;4.13;;;11.30;99.90;;;;;;5015820;28;20239;-74
2023/09/15 05:34:15;;;;;;;8.43;3.60;;;11.40;99.90;;;;;;5033177;28;20716;-73
2023/09/15 05:36:42;;;;;;;5.25;4.32;;;11.50;99.90;;;;;;5031623;28;20314;-75
2023/09/15 05:39:09;;;;;;;4.63;3.97;;;11.60;99.90;;;;;;5030940;28;20228;-74
2023/09/15 05:41:36;;;;;;;4.55;3.58;;;11.70;99.90;;;;;;5027228;28;20201;-75
2023/09/15 05:44:05;;;;;;;5.10;4.22;;;11.70;99.90;;;;;;5028888;28;20201;-73
2023/09/15 05:46:33;;;;;;;7.72;4.18;;;11.80;99.90;;;;;;5031142;28;20231;-72
2023/09/15 05:49:00;;;;;;;6.90;3.78;;;12.00;99.90;;;;;;5031694;28;20328;-70
2023/09/15 05:51:27;;;;;;;5.53;4.45;;;12.00;99.90;;;;;;5032230;28;20212;-74
2023/09/15 05:53:53;;;;;;;5.05;4.45;;;12.10;99.90;;;;;;5032926;28;20192;-73
2023/09/15 05:56:20;;;;;;;6.78;4.35;;;12.20;99.90;;;;;;5032211;28;20673;-71
2023/09/15 05:58:47;;;;;;;4.65;3.72;;;12.30;99.90;;;;;;5031941;28;20245;-71
2023/09/15 06:01:14;;;;;;;4.85;4.28;;;12.40;99.90;;;;;;5028932;28;20232;-72
2023/09/15 06:03:43;;;;;;;6.93;3.97;;;12.60;99.90;;;;;;5032307;28;20661;-74
2023/09/15 06:06:10;;;;;;;4.95;4.00;;;13.10;99.90;;;;;;5031326;28;20247;-73
2023/09/15 06:08:38;;;;;;;6.35;3.20;;;14.10;99.90;;;;;;5024516;28;20208;-71
2023/09/15 06:11:06;;;;;;;4.15;3.00;;;15.30;99.90;;;;;;5032461;28;20598;-73
2023/09/15 06:13:34;;;;;;;7.73;2.93;;;16.60;99.90;;;;;;5030398;28;20206;-71
2023/09/15 06:16:03;;;;;;;4.33;2.43;;;17.80;99.90;;;;;;5032139;28;20537;-72
2023/09/15 06:18:31;;;;;;;5.63;3.10;;;19.10;99.90;;;;;;5022946;28;20464;-73
2023/09/15 06:20:59;;;;;;;7.30;3.03;;;20.50;99.90;;;;;;5029495;28;20622;-74
2023/09/15 06:23:28;;;;;;;4.00;2.83;;;21.50;96.30;;;;;;5032397;28;20447;-73
2023/09/15 06:25:55;;;;;;;4.17;3.00;;;22.20;93.50;;;;;;5030301;28;20467;-74
2023/09/15 06:28:23;;;;;;;5.70;3.57;;;22.60;91.10;;;;;;5031607;28;20529;-75
2023/09/15 06:30:52;;;;;;;4.43;3.03;;;23.20;90.60;;;;;;5031772;28;20819;-74
2023/09/15 06:33:19;;;;;;;5.23;2.90;;;23.70;89.90;;;;;;5026318;28;20774;-73
2023/09/15 06:35:46;;;;;;;6.30;3.70;;;24.40;87.30;;;;;;5026062;28;20545;-73
2023/09/15 06:38:14;;;;;;;3.47;2.63;;;24.80;85.50;;;;;;5024373;28;20443;-74
2023/09/15 06:40:41;;;;;;;6.13;3.40;;;25.50;84.40;;;;;;5030610;28;20566;-74
2023/09/15 06:43:08;;;;;;;5.20;3.10;;;25.40;82.20;;;;;;5030672;28;20447;-73
2023/09/15 06:45:35;;;;;;;7.27;3.87;;;25.70;82.00;;;;;;5031319;28;20493;-72
2023/09/15 06:48:02;;;;;;;6.13;4.33;;;25.60;80.90;;;;;;5020286;28;20526;-71
2023/09/15 06:50:30;;;;;;;6.33;3.93;;;25.90;80.70;;;;;;5031448;28;20526;-70
2023/09/15 06:52:57;;;;;;;5.30;3.63;;;26.20;80.40;;;;;;5032560;28;20439;-72
2023/09/15 06:55:26;;;;;;;6.07;4.10;;;26.40;79.60;;;;;;5031800;28;20447;-71
2023/09/15 06:57:52;;;;;;;7.33;4.27;;;26.90;78.50;;;;;;5033575;28;20438;-74
2023/09/15 07:00:20;;;;;;;7.30;3.73;;;26.80;77.30;;;;;;5035170;28;20529;-71
2023/09/15 07:02:46;;;;;;;5.57;3.30;;;26.90;77.50;;;;;;5036061;28;20925;-71
2023/09/15 07:05:13;;;;;;;8.70;3.60;;;27.00;76.60;;;;;;5035228;28;20865;-70
2023/09/15 07:07:40;;;;;;;5.30;3.70;;;26.80;77.00;;;;;;5035686;28;20573;-68
2023/09/15 07:10:09;;;;;;;7.53;3.97;;;26.50;77.20;;;;;;5040930;28;20470;-71
2023/09/15 07:12:37;;;;;;;6.17;3.30;;;26.20;78.60;;;;;;5039831;28;20468;-73
2023/09/15 07:15:05;;;;;;;6.03;3.20;;;26.00;79.30;;;;;;5040862;28;20439;-72
2023/09/15 07:17:33;;;;;;;6.10;3.50;;;25.90;78.80;;;;;;5035751;28;20521;-70
2023/09/15 07:20:00;;;;;;;7.63;4.00;;;24.80;80.90;;;;;;5035616;28;20484;-71
2023/09/15 07:22:28;;;;;;;6.63;3.93;;;23.40;83.90;;;;;;5033459;28;20435;-68
2023/09/15 07:24:55;;;;;;;7.47;4.90;;;23.10;85.80;;;;;;5048656;28;20532;-72
2023/09/15 07:27:23;;;;;;;8.97;4.73;;;22.40;87.70;;;;;;5035718;28;20481;-72
2023/09/15 07:29:52;;;;;;;6.43;3.90;;;22.10;89.70;;;;;;5034311;28;20521;-71
2023/09/15 07:32:21;;;;;;;16.57;4.67;;;22.50;89.90;;;;;;5034923;28;20483;-72
2023/09/15 07:34:51;;;;;;;4.70;4.23;;;23.70;87.80;;;;;;5034901;28;20477;-70
2023/09/15 07:37:17;;;;;;;6.60;3.43;;;24.90;84.90;;;;;;5035033;28;20470;-72
2023/09/15 07:39:45;;;;;;;6.77;4.17;;;26.00;81.40;;;;;;5034416;28;20569;-72
2023/09/15 07:42:12;;;;;;;7.30;4.27;;;26.90;78.60;;;;;;5034533;28;20454;-70
2023/09/15 07:44:41;;;;;;;8.50;3.50;;;27.30;77.50;;;;;;5029503;28;20987;-71
2023/09/15 07:47:12;;;;;;;5.30;3.27;;;27.50;76.90;;;;;;5034838;28;20938;-74
2023/09/15 07:49:39;;;;;;;6.43;3.57;;;27.70;75.80;;;;;;5033464;28;20471;-72
2023/09/15 07:52:07;;;;;;;7.83;4.10;;;27.90;76.10;;;;;;5029685;28;20476;-71
2023/09/15 07:54:35;;;;;;;6.90;3.60;;;27.70;75.10;;;;;;5030785;28;20533;-71
2023/09/15 07:57:03;;;;;;;5.47;3.23;;;28.20;73.50;;;;;;5033975;28;20467;-72
2023/09/15 07:59:30;;;;;;;5.70;4.00;;;27.60;74.60;;;;;;5033960;28;20507;-72
2023/09/15 08:01:57;;;;;;;4.77;3.40;;;27.80;74.80;;;;;;5034476;28;20479;-71
2023/09/15 08:04:25;;;;;;;7.37;3.30;;;28.20;74.10;;;;;;5028843;28;20451;-74
2023/09/15 08:06:54;;;;;;;5.20;3.23;;;28.00;73.10;;;;;;5029633;28;20569;-72
2023/09/15 08:09:21;;;;;;;3.70;3.00;;;28.00;74.30;;;;;;5031677;28;20793;-73
2023/09/15 08:11:48;;;;;;;9.27;4.33;;;28.50;72.40;;;;;;5027073;28;20505;-69
2023/09/15 08:14:15;;;;;;;7.60;3.40;;;28.40;72.40;;;;;;5036386;28;20451;-74
2023/09/15 08:16:42;;;;;;;6.33;4.00;;;28.70;72.50;;;;;;5039200;28;20501;-75
2023/09/15 08:19:09;;;;;;;4.10;3.63;;;29.30;71.90;;;;;;5032037;28;20533;-71
2023/09/15 08:21:39;;;;;;;6.73;4.17;;;29.50;70.90;;;;;;5037427;28;20485;-71
2023/09/15 08:24:07;;;;;;;5.50;3.70;;;29.30;70.60;;;;;;5044131;28;20458;-72
2023/09/15 08:26:34;;;;;;;6.37;4.17;;;28.80;70.90;;;;;;5028296;28;20464;-70
2023/09/15 08:29:01;;;;;;;6.20;4.00;;;29.40;71.60;;;;;;5026540;28;20443;-72
2023/09/15 08:31:28;;;;;;;6.03;4.07;;;29.30;71.30;;;;;;5036676;28;20521;-71
2023/09/15 08:33:55;;;;;;;6.93;4.30;;;29.30;70.80;;;;;;5031762;28;20475;-70
2023/09/15 08:36:24;;;;;;;7.03;4.50;;;29.20;71.00;;;;;;5029744;28;20466;-71
2023/09/15 08:38:52;;;;;;;6.13;4.57;;;29.10;70.80;;;;;;5033564;28;20522;-70
2023/09/15 08:41:23;;;;;;;5.93;4.40;;;28.90;71.10;;;;;;5034508;28;20482;-70
2023/09/15 08:43:52;;;;;;;10.53;4.33;;;28.60;71.50;;;;;;5032339;28;20447;-75
2023/09/15 08:46:19;;;;;;;6.70;3.97;;;28.80;71.20;;;;;;5029972;28;20467;-72
2023/09/15 08:48:51;;;;;;;7.23;5.03;;;28.30;71.90;;;;;;5032183;28;20521;-73
2023/09/15 08:51:20;;;;;;;6.13;4.17;;;27.80;72.80;;;;;;5033833;28;20815;-73
2023/09/15 08:53:48;;;;;;;7.57;4.10;;;27.90;74.50;;;;;;5034373;28;20450;-72
2023/09/15 08:56:17;;;;;;;6.10;4.60;;;28.70;72.60;;;;;;5046455;28;20817;-69
2023/09/15 08:58:44;;;;;;;10.27;4.10;;;29.10;71.90;;;;;;5042786;28;20534;-73
2023/09/15 09:01:13;;;;;;;7.57;4.97;;;29.40;71.00;;;;;;5041085;28;20540;-71
2023/09/15 09:03:40;;;;;;;6.47;4.10;;;29.60;71.30;;;;;;5033919;28;20542;-73
2023/09/15 09:06:10;;;;;;;4.30;3.60;;;29.80;70.70;;;;;;5025694;28;20843;-74
2023/09/15 09:08:40;;;;;;;6.73;3.47;;;29.80;70.20;;;;;;5031915;28;20435;-71
2023/09/15 09:11:07;;;;;;;7.70;3.93;;;29.90;70.40;;;;;;5025860;28;20530;-75
2023/09/15 09:13:36;;;;;;;6.57;4.17;;;29.10;71.10;;;;;;5033406;28;20443;-73
2023/09/15 09:16:05;;;;;;;6.03;4.23;;;29.00;73.00;;;;;;5033652;28;20462;-70
2023/09/15 09:18:34;;;;;;;5.73;4.07;;;29.30;71.40;;;;;;5032951;28;20439;-69
2023/09/15 09:21:04;;;;;;;6.37;3.73;;;29.10;71.90;;;;;;5032295;28;20514;-73
2023/09/15 09:23:31;;;;;;;8.03;4.37;;;29.50;71.80;;;;;;5033404;28;20466;-72
2023/09/15 09:26:00;;;;;;;6.20;3.53;;;29.70;71.30;;;;;;5031667;28;20562;-69
2023/09/15 09:28:27;;;;;;;4.30;3.83;;;30.00;71.20;;;;;;5033486;28;20443;-72
2023/09/15 09:30:56;;;;;;;5.67;4.00;;;30.20;71.00;;;;;;5025838;28;20510;-72
2023/09/15 09:33:23;;;;;;;4.40;4.00;;;30.10;70.10;;;;;;5032820;28;20466;-71
2023/09/15 09:35:50;;;;;;;7.17;3.90;;;29.80;71.50;;;;;;5033244;28;20462;-72
2023/09/15 09:38:17;;;;;;;5.47;3.90;;;29.40;71.70;;;;;;5026692;28;20443;-72
2023/09/15 09:40:45;;;;;;;6.80;3.80;;;29.10;72.80;;;;;;5031593;28;20577;-72
2023/09/15 09:43:15;;;;;;;4.63;3.70;;;29.10;73.30;;;;;;5033158;28;20458;-71
2023/09/15 09:45:48;;;;;;;5.27;3.90;;;28.90;72.90;;;;;;5032805;28;20471;-70
2023/09/15 09:48:17;;;;;;;4.90;4.10;;;29.10;74.00;;;;;;5030163;28;20447;-71
2023/09/15 09:50:48;;;;;;;8.03;4.30;;;28.50;73.80;;;;;;5032375;28;20449;-75
2023/09/15 09:53:15;;;;;;;4.40;3.77;;;28.30;74.70;;;;;;5032433;28;20522;-72
2023/09/15 09:55:44;;;;;;;6.73;4.30;;;28.50;74.60;;;;;;5033317;28;20541;-72
2023/09/15 09:58:14;;;;;;;6.53;4.37;;;28.20;75.30;;;;;;5033963;28;20439;-72
2023/09/15 10:00:42;;;;;;;4.60;3.30;;;28.20;75.50;;;;;;5043626;28;20485;-72
2023/09/15 10:03:09;;;;;;;4.40;4.00;;;28.20;76.40;;;;;;5032575;28;20530;-74
2023/09/15 10:05:37;;;;;;;5.10;3.90;;;28.10;75.60;;;;;;5022663;28;20498;-74
2023/09/15 10:08:05;;;;;;;6.30;4.00;;;28.10;75.60;;;;;;5032728;28;20449;-71
2023/09/15 10:10:33;;;;;;;5.13;4.40;;;28.30;76.20;;;;;;5023751;28;20435;-69
2023/09/15 10:13:01;;;;;;;4.50;3.80;;;28.30;76.10;;;;;;5027016;28;20459;-72
2023/09/15 10:15:28;;;;;;;7.43;4.00;;;27.80;76.30;;;;;;5031998;28;20439;-71
2023/09/15 10:17:56;;;;;;;4.23;3.57;;;27.70;76.40;;;;;;5032674;28;20446;-74
2023/09/15 10:20:23;;;;;;;5.50;4.70;;;27.90;77.00;;;;;;5031576;28;21067;-70
2023/09/15 10:22:52;;;;;;;5.80;5.23;;;28.10;76.20;;;;;;5030399;28;20455;-71
2023/09/15 10:25:21;;;;;;;5.93;4.10;;;27.40;76.80;;;;;;5031598;28;20477;-72
2023/09/15 10:27:47;;;;;;;4.20;3.80;;;27.40;77.40;;;;;;5031658;28;20509;-71
2023/09/15 10:30:23;;;;;;;5.23;3.90;;;27.20;77.90;;;;;;5021554;28;20454;-72
2023/09/15 10:32:53;;;;;;;7.73;4.13;;;27.10;79.00;;;;;;5033175;28;20545;-70
2023/09/15 10:35:20;;;;;;;4.90;4.17;;;26.80;79.20;;;;;;5039299;28;20955;-73
2023/09/15 10:37:48;;;;;;;5.70;4.07;;;26.30;79.80;;;;;;5036391;28;20471;-72
2023/09/15 10:40:17;;;;;;;4.93;4.23;;;25.80;81.20;;;;;;5035260;28;20569;-73
2023/09/15 10:42:50;;;;;;;6.13;4.13;;;25.40;82.10;;;;;;5031780;28;20451;-74
2023/09/15 10:45:18;;;;;;;6.00;4.73;;;25.10;83.30;;;;;;5035539;28;20480;-74
2023/09/15 10:47:56;;;;;;;6.43;4.33;;;24.70;84.00;;;;;;5036194;28;20449;-74
2023/09/15 10:50:31;;;;;;;6.60;4.20;;;24.40;85.10;;;;;;5015398;28;20454;-72
2023/09/15 10:53:07;;;;;;;9.87;4.37;;;24.20;85.90;;;;;;5036175;28;20443;-72
2023/09/15 10:55:36;;;;;;;5.67;4.33;;;24.00;87.60;;;;;;5035842;28;20445;-71
2023/09/15 10:58:05;;;;;;;7.80;4.63;;;23.90;87.70;;;;;;5037193;28;20431;-69
2023/09/15 11:00:32;;;;;;;3.93;3.53;;;23.80;88.30;;;;;;5034372;28;21071;-70
2023/09/15 11:03:00;;;;;;;5.77;4.67;;;23.80;88.30;;;;;;5033870;28;20442;-70
2023/09/15 11:05:28;;;;;;;5.47;4.20;;;23.70;89.10;;;;;;5038576;28;20481;-70
2023/09/15 11:07:57;;;;;;;5.70;3.43;;;23.50;88.90;;;;;;5031982;28;20880;-71
2023/09/15 11:10:28;;;;;;;4.70;3.50;;;23.40;90.20;;;;;;5033076;28;20467;-74
2023/09/15 11:13:01;;;;;;;5.57;4.27;;;23.50;90.30;;;;;;5031352;28;20534;-73
2023/09/15 11:15:28;;;;;;;6.47;4.90;;;23.40;90.00;;;;;;5035450;28;20454;-71
2023/09/15 11:17:55;;;;;;;4.70;4.20;;;23.40;90.20;;;;;;5034462;28;20818;-73
2023/09/15 11:20:22;;;;;;;4.87;3.90;;;23.30;90.30;;;;;;5035582;28;20486;-74
2023/09/15 11:22:55;;;;;;;6.30;4.10;;;23.30;90.70;;;;;;5034232;28;20473;-73
2023/09/15 11:25:22;;;;;;;7.00;3.83;;;23.30;90.90;;;;;;5036140;28;20461;-71
2023/09/15 11:27:51;;;;;;;7.53;3.97;;;23.20;91.10;;;;;;5033479;28;20432;-72
2023/09/15 11:30:19;;;;;;;5.77;4.53;;;23.20;91.30;;;;;;5037296;28;20477;-73
2023/09/15 11:32:46;;;;;;;9.03;4.13;;;23.10;91.40;;;;;;5037166;28;20967;-71
2023/09/15 11:35:13;;;;;;;4.97;4.23;;;23.20;91.40;;;;;;5034715;28;20867;-72
2023/09/15 11:37:42;;;;;;;9.23;4.00;;;23.20;91.60;;;;;;5034837;28;20462;-72
2023/09/15 11:40:20;;;;;;;5.70;4.17;;;23.10;91.30;;;;;;5030691;28;20534;-69
2023/09/15 11:42:52;;;;;;;9.63;4.00;;;23.00;91.40;;;;;;5022605;28;20459;-74
2023/09/15 11:45:23;;;;;;;5.43;4.10;;;22.90;91.80;;;;;;5035287;28;20502;-75
2023/09/15 11:47:52;;;;;;;4.70;4.20;;;22.90;92.00;;;;;;5034629;28;20442;-70
2023/09/15 11:50:20;;;;;;;5.43;4.30;;;22.80;92.00;;;;;;5033904;28;20851;-70
2023/09/15 11:52:47;;;;;;;9.00;4.47;;;23.00;92.20;;;;;;5034420;28;20442;-72
2023/09/15 11:55:19;;;;;;;7.20;4.67;;;22.90;92.20;;;;;;5043560;28;20481;-69
2023/09/15 11:57:46;;;;;;;6.73;4.00;;;22.90;92.20;;;;;;5026992;28;20483;-72
2023/09/15 12:00:16;;;;;;;7.37;4.17;;;22.80;92.40;;;;;;5031678;28;21031;-70
2023/09/15 12:02:45;;;;;;;6.77;4.33;;;22.80;92.50;;;;;;5035478;28;20509;-71
2023/09/15 12:05:12;;;;;;;6.60;3.77;;;22.70;92.40;;;;;;5031390;28;20451;-72
2023/09/15 12:07:39;;;;;;;6.43;4.90;;;22.80;92.30;;;;;;5034717;28;20487;-70
2023/09/15 12:10:07;;;;;;;4.43;4.03;;;22.70;92.30;;;;;;5035751;28;20450;-70
2023/09/15 12:12:34;;;;;;;6.80;3.90;;;22.70;92.70;;;;;;5037281;28;20443;-72
2023/09/15 12:15:04;;;;;;;8.10;4.00;;;22.70;92.30;;;;;;5034890;28;20446;-71
2023/09/15 12:17:31;;;;;;;8.10;4.70;;;22.80;92.30;;;;;;5025242;28;20966;-72
2023/09/15 12:20:02;;;;;;;6.17;4.03;;;22.80;92.30;;;;;;5024810;28;20444;-74
2023/09/15 12:22:32;;;;;;;6.07;4.00;;;22.90;92.30;;;;;;5035366;28;20918;-74
2023/09/15 12:24:59;;;;;;;4.87;4.07;;;22.90;92.30;;;;;;5034248;28;20439;-69
2023/09/15 12:27:30;;;;;;;5.13;3.83;;;22.90;92.50;;;;;;5030136;28;20866;-71
2023/09/15 12:29:57;;;;;;;4.00;3.57;;;22.70;92.40;;;;;;5032859;28;20463;-71
2023/09/15 12:32:31;;;;;;;8.00;4.00;;;22.70;92.70;;;;;;5034178;28;20533;-72
2023/09/15 12:35:02;;;;;;;5.87;3.70;;;22.80;92.90;;;;;;5028217;28;20816;-72
2023/09/15 12:37:32;;;;;;;8.33;3.80;;;22.80;93.00;;;;;;5032289;28;20467;-70
2023/09/15 12:39:59;;;;;;;6.37;4.37;;;22.90;92.90;;;;;;5028476;28;20528;-71
2023/09/15 12:42:26;;;;;;;6.87;4.10;;;22.90;93.00;;;;;;5035257;28;20515;-70
2023/09/15 12:44:53;;;;;;;4.93;4.43;;;23.00;93.20;;;;;;5041318;28;20927;-75
2023/09/15 12:47:20;;;;;;;6.43;3.83;;;23.00;92.60;;;;;;5036544;28;20462;-73
2023/09/15 12:49:48;;;;;;;5.27;4.13;;;23.00;92.50;;;;;;5029013;28;20527;-70
2023/09/15 12:52:16;;;;;;;4.80;4.07;;;23.00;92.70;;;;;;5031190;28;20439;-73